createdAt,value
2023-01-19T00:00:22.835Z,91850.91
2023-01-19T00:05:29.784Z,91849.34
2023-01-19T00:10:36.596Z,91851.45
2023-01-19T00:15:43.440Z,91862.45
2023-01-19T00:20:50.910Z,91850.25
2023-01-19T00:25:58.153Z,91857.25
2023-01-19T00:31:05.166Z,91860.39
2023-01-19T00:36:12.825Z,91864.80
2023-01-19T00:41:21.782Z,91875.27
2023-01-19T00:46:28.512Z,91877.61
2023-01-19T00:51:35.699Z,91876.30
2023-01-19T00:56:42.981Z,91871.88
2023-01-19T01:01:49.759Z,91862.66
2023-01-19T01:06:56.908Z,91863.50
2023-01-19T01:12:04.168Z,91883.09
2023-01-19T01:17:14.632Z,91891.28
2023-01-19T01:22:21.842Z,91879.62
2023-01-19T01:27:28.657Z,91888.33
2023-01-19T01:32:35.466Z,91883.35
2023-01-19T01:37:43.764Z,91875.52
2023-01-19T01:42:50.768Z,91877.41
2023-01-19T01:48:02.013Z,91865.60
2023-01-19T01:53:13.141Z,91849.00
2023-01-19T01:58:20.117Z,91866.97
2023-01-19T02:03:29.227Z,91878.13
2023-01-19T02:08:58.194Z,91876.25
2023-01-19T02:14:08.067Z,91868.31
2023-01-19T02:19:19.310Z,91871.80
2023-01-19T02:24:28.891Z,91870.28
2023-01-19T02:29:37.019Z,91863.77
2023-01-19T02:34:43.761Z,91851.55
2023-01-19T02:39:56.411Z,91854.23
2023-01-19T02:45:05.692Z,91857.45
2023-01-19T02:50:46.291Z,91842.94
2023-01-19T02:56:25.249Z,91858.28
2023-01-19T03:01:39.444Z,91867.23
2023-01-19T03:06:50.690Z,91875.84
2023-01-19T03:12:16.753Z,91875.80
2023-01-19T03:17:24.437Z,91882.84
2023-01-19T03:22:32.044Z,91894.06
2023-01-19T03:27:42.403Z,91902.67
2023-01-19T03:32:53.444Z,91922.00
2023-01-19T03:38:02.286Z,91929.75
2023-01-19T03:43:09.956Z,91925.92
2023-01-19T03:48:16.750Z,91921.92
2023-01-19T03:53:24.021Z,91910.95
2023-01-19T03:58:30.719Z,91908.00
2023-01-19T04:03:37.414Z,91916.50
2023-01-19T04:08:44.069Z,91900.34
2023-01-19T04:13:50.822Z,91902.52
2023-01-19T04:18:58.090Z,91910.05
2023-01-19T04:24:04.856Z,91916.77
2023-01-19T04:29:11.785Z,91922.08
2023-01-19T04:34:18.446Z,91925.94
2023-01-19T04:39:25.126Z,91932.17
2023-01-19T04:44:31.990Z,91928.27
2023-01-19T04:49:39.323Z,91921.95
2023-01-19T04:54:46.010Z,91928.99
2023-01-19T04:59:52.686Z,91928.69
2023-01-19T05:04:59.336Z,91924.28
2023-01-19T05:10:07.161Z,91927.07
2023-01-19T05:15:13.938Z,91934.18
2023-01-19T05:20:20.935Z,91940.52
2023-01-19T05:25:27.719Z,91947.50
2023-01-19T05:30:34.484Z,91955.04
2023-01-19T05:35:41.262Z,91959.00
2023-01-19T05:40:47.940Z,91964.25
2023-01-19T05:45:54.691Z,91967.86
2023-01-19T05:51:02.635Z,91970.14
2023-01-19T05:56:11.689Z,91962.02
2023-01-19T06:01:18.790Z,91968.96
2023-01-19T06:06:25.683Z,91973.91
2023-01-19T06:11:32.380Z,91968.05
2023-01-19T06:16:39.134Z,91963.96
2023-01-19T06:21:47.438Z,91968.93
2023-01-19T06:26:54.285Z,91972.61
2023-01-19T06:32:01.238Z,91978.42
2023-01-19T06:37:07.951Z,91991.23
2023-01-19T06:42:14.750Z,91994.36
2023-01-19T06:47:21.435Z,92004.33
2023-01-19T06:52:28.811Z,92016.95
2023-01-19T06:57:35.482Z,92021.19
2023-01-19T07:02:45.530Z,92019.09
2023-01-19T07:07:57.019Z,92019.98
2023-01-19T07:13:04.010Z,92027.15
2023-01-19T07:18:10.885Z,92038.32
2023-01-19T07:23:18.458Z,92035.28
2023-01-19T07:28:28.058Z,92034.65
2023-01-19T07:33:34.721Z,92039.69
2023-01-19T07:38:42.548Z,92048.28
2023-01-19T07:43:50.768Z,92060.40
2023-01-19T07:48:57.918Z,92074.02
2023-01-19T07:54:04.876Z,92087.36
2023-01-19T07:59:12.391Z,92105.06
2023-01-19T08:04:19.327Z,92123.12
2023-01-19T08:09:26.059Z,92116.19
2023-01-19T08:14:34.721Z,92114.25
2023-01-19T08:19:41.733Z,92119.97
2023-01-19T08:24:50.345Z,92105.75
2023-01-19T08:29:56.795Z,92125.73
2023-01-19T08:35:03.500Z,92133.96
2023-01-19T08:40:11.901Z,92137.25
2023-01-19T08:45:19.435Z,92140.61
2023-01-19T08:50:32.210Z,92139.34
2023-01-19T08:55:39.466Z,92148.00
2023-01-19T09:00:46.105Z,92147.72
2023-01-19T09:05:52.896Z,92145.53
2023-01-19T09:10:59.516Z,92158.23
2023-01-19T09:16:08.182Z,92160.88
2023-01-19T09:21:15.434Z,92157.23
2023-01-19T09:26:23.925Z,92168.48
2023-01-19T09:31:30.719Z,92171.27
2023-01-19T09:36:38.270Z,92178.42
2023-01-19T09:41:48.674Z,92171.25
2023-01-19T09:46:55.355Z,92172.17
2023-01-19T09:52:02.533Z,92178.97
2023-01-19T09:57:14.972Z,92184.38
2023-01-19T10:02:43.629Z,92189.76
2023-01-19T10:08:13.917Z,92197.41
2023-01-19T10:13:31.023Z,92203.50
2023-01-19T10:18:51.946Z,92191.98
2023-01-19T10:24:20.668Z,92191.97
2023-01-19T10:29:39.812Z,92190.80
2023-01-19T10:34:47.208Z,92191.58
2023-01-19T10:40:01.261Z,92192.20
2023-01-19T10:45:23.747Z,92196.58
2023-01-19T10:50:37.757Z,92197.42
2023-01-19T10:55:43.603Z,92210.05
2023-01-19T11:00:50.050Z,92214.34
2023-01-19T11:06:00.126Z,92234.46
2023-01-19T11:11:09.240Z,92217.27
2023-01-19T11:16:26.654Z,92223.21
2023-01-19T11:21:35.035Z,92222.61
2023-01-19T11:26:51.423Z,92229.67
2023-01-19T11:32:01.561Z,92235.38
2023-01-19T11:37:21.609Z,92240.66
2023-01-19T11:42:31.731Z,92243.69
2023-01-19T11:47:49.214Z,92243.55
2023-01-19T11:53:30.510Z,92239.23
2023-01-19T11:58:44.874Z,92242.47
2023-01-19T12:04:16.646Z,92251.60
2023-01-19T12:09:36.650Z,92257.78
2023-01-19T12:15:02.375Z,92268.84
2023-01-19T12:20:28.892Z,92261.45
2023-01-19T12:25:56.484Z,92263.65
2023-01-19T12:31:04.734Z,92271.95
2023-01-19T12:36:40.095Z,92266.26
2023-01-19T12:41:47.601Z,92287.68
2023-01-19T12:47:08.088Z,92281.09
2023-01-19T12:52:41.536Z,92281.63
2023-01-19T12:58:09.278Z,92281.09
2023-01-19T13:03:29.167Z,92275.82
2023-01-19T13:09:03.426Z,92270.84
2023-01-19T13:14:37.721Z,92272.45
2023-01-19T13:19:51.623Z,92273.06
2023-01-19T13:25:09.518Z,92273.89
2023-01-19T13:30:19.058Z,92285.92
2023-01-19T13:35:26.565Z,92289.10
2023-01-19T13:40:39.125Z,92292.92
2023-01-19T13:45:53.469Z,92308.90
2023-01-19T13:51:07.211Z,92320.86
2023-01-19T13:56:22.226Z,92324.83
2023-01-19T14:01:30.372Z,92324.91
2023-01-19T14:06:43.290Z,92328.24
2023-01-19T14:12:12.990Z,92337.53
2023-01-19T14:17:29.503Z,92340.67
2023-01-19T14:22:49.249Z,92346.30
2023-01-19T14:28:28.968Z,92350.86
2023-01-19T14:33:46.626Z,92362.74
2023-01-19T14:38:56.211Z,92367.91
2023-01-19T14:44:03.902Z,92370.97
2023-01-19T14:49:14.634Z,92375.95
2023-01-19T14:54:25.857Z,92382.83
2023-01-19T14:59:34.436Z,92391.39
2023-01-19T15:04:41.403Z,92394.61
2023-01-19T15:09:50.247Z,92397.49
2023-01-19T15:14:58.425Z,92395.80
2023-01-19T15:20:06.371Z,92393.08
2023-01-19T15:25:20.024Z,92390.12
2023-01-19T15:30:31.350Z,92395.47
2023-01-19T15:35:38.033Z,92398.33
2023-01-19T15:40:44.947Z,92404.03
2023-01-19T15:46:03.418Z,92405.27
2023-01-19T15:51:15.975Z,92414.34
2023-01-19T15:56:26.953Z,92417.39
2023-01-19T16:01:35.475Z,92429.60
2023-01-19T16:06:42.616Z,92435.75
2023-01-19T16:11:49.454Z,92446.74
2023-01-19T16:16:57.755Z,92456.70
2023-01-19T16:22:05.891Z,92457.88
2023-01-19T16:27:13.223Z,92465.63
2023-01-19T16:32:20.817Z,92462.66
2023-01-19T16:37:28.162Z,92459.50
2023-01-19T16:42:36.239Z,92470.02
2023-01-19T16:47:43.285Z,92469.17
2023-01-19T16:52:51.290Z,92478.20
2023-01-19T16:57:58.123Z,92491.38
2023-01-19T17:03:04.900Z,92523.25
2023-01-19T17:08:11.570Z,92521.63
2023-01-19T17:13:18.741Z,92497.02
2023-01-19T17:18:25.627Z,92505.58
2023-01-19T17:23:33.710Z,92519.17
2023-01-19T17:28:41.550Z,92523.42
2023-01-19T17:33:51.092Z,92522.54
2023-01-19T17:39:00.512Z,92524.03
2023-01-19T17:44:09.061Z,92524.22
2023-01-19T17:49:16.365Z,92510.30
2023-01-19T17:54:23.646Z,92508.14
2023-01-19T17:59:30.573Z,92495.49
2023-01-19T18:04:41.545Z,92475.20
2023-01-19T18:09:48.170Z,92471.69
2023-01-19T18:14:55.026Z,92465.83
2023-01-19T18:20:02.929Z,92481.35
2023-01-19T18:25:11.129Z,92481.77
2023-01-19T18:30:19.029Z,92495.25
2023-01-19T18:35:25.772Z,92501.81
2023-01-19T18:40:32.438Z,92503.13
2023-01-19T18:45:40.259Z,92507.81
2023-01-19T18:50:46.983Z,92522.36
2023-01-19T18:55:56.708Z,92531.98
2023-01-19T19:01:03.960Z,92505.67
2023-01-19T19:06:10.826Z,92509.30
2023-01-19T19:11:18.283Z,92499.31
2023-01-19T19:16:25.461Z,92525.53
2023-01-19T19:21:32.486Z,92547.39
2023-01-19T19:26:39.636Z,92543.81
2023-01-19T19:31:46.949Z,92537.61
2023-01-19T19:36:53.886Z,92536.23
2023-01-19T19:42:00.825Z,92540.98
2023-01-19T19:47:08.368Z,92557.11
2023-01-19T19:52:15.304Z,92556.40
2023-01-19T19:57:22.198Z,92568.84
2023-01-19T20:02:29.275Z,92575.61
2023-01-19T20:07:36.222Z,92586.49
2023-01-19T20:12:42.981Z,92589.97
2023-01-19T20:17:49.936Z,92583.75
2023-01-19T20:22:57.070Z,92587.36
2023-01-19T20:28:03.938Z,92589.49
2023-01-19T20:33:10.741Z,92583.28
2023-01-19T20:38:17.568Z,92594.31
2023-01-19T20:43:24.704Z,92573.33
2023-01-19T20:48:31.997Z,92576.95
2023-01-19T20:53:40.099Z,92596.83
2023-01-19T20:58:46.784Z,92588.25
2023-01-19T21:03:54.483Z,92590.73
2023-01-19T21:09:01.393Z,92580.67
2023-01-19T21:14:09.098Z,92579.89
2023-01-19T21:19:16.260Z,92572.46
2023-01-19T21:24:23.270Z,92571.94
2023-01-19T21:29:30.073Z,92571.53
2023-01-19T21:34:37.215Z,92557.50
2023-01-19T21:39:44.010Z,92557.91
2023-01-19T21:44:51.944Z,92552.59
2023-01-19T21:49:59.367Z,92562.05
2023-01-19T21:55:07.137Z,92569.23
2023-01-19T22:00:14.041Z,92566.86
2023-01-19T22:05:20.649Z,92562.72
2023-01-19T22:10:27.770Z,92559.50
2023-01-19T22:15:34.689Z,92560.73
2023-01-19T22:20:41.615Z,92560.29
2023-01-19T22:25:48.292Z,92558.95
2023-01-19T22:30:55.197Z,92564.81
2023-01-19T22:36:30.350Z,92560.29
2023-01-19T22:41:45.649Z,92575.91
2023-01-19T22:46:55.449Z,92571.49
2023-01-19T22:52:02.459Z,92562.84
2023-01-19T22:57:10.981Z,92550.91
2023-01-19T23:02:20.699Z,92554.81
2023-01-19T23:07:26.796Z,92557.35
2023-01-19T23:12:33.669Z,92547.72
2023-01-19T23:17:42.178Z,92546.59
2023-01-19T23:22:49.191Z,92541.91
2023-01-19T23:27:56.236Z,92543.35
2023-01-19T23:33:03.376Z,92537.19
2023-01-19T23:38:10.254Z,92543.76
2023-01-19T23:43:17.322Z,92534.84
2023-01-19T23:48:24.193Z,92525.98
2023-01-19T23:53:30.919Z,92524.30
2023-01-19T23:58:37.862Z,92523.62
